Time;durP1;ratioP1;P1;durP2;ratioP2;P2;SDS_P1;SDS_P2;PMS_P1;PMS_P2;Temp;Humidity;BMP_temperature;BMP_pressure;BME280_temperature;BME280_humidity;BME280_pressure;Samples;Min_cycle;Max_cycle;Signal;HPM_P1;HPM_P2
2022/12/22 03:28:03;;;;;;;9.63;8.73;;;;;;;9.60;100.00;98145.44;5051438;28;20216;-80
2022/12/22 03:30:31;;;;;;;9.50;7.53;;;;;;;9.60;100.00;98156.00;5046578;28;20224;-80
2022/12/22 03:33:02;;;;;;;8.00;7.17;;;;;;;9.57;100.00;98150.97;5043696;28;20263;-80
2022/12/22 03:35:30;;;;;;;9.13;7.50;;;;;;;9.60;100.00;98140.16;5045719;28;20644;-81
2022/12/22 03:38:02;;;;;;;9.87;7.50;;;;;;;9.66;100.00;98137.03;5039079;28;20223;-81
2022/12/22 03:40:31;;;;;;;9.27;8.27;;;;;;;9.66;100.00;98131.75;5052672;28;20193;-80
2022/12/22 03:48:31;;;;;;;10.60;9.37;;;;;;;9.55;100.00;98117.66;5048067;28;20262;-80
2022/12/22 03:50:59;;;;;;;11.53;9.70;;;;;;;9.46;100.00;98114.78;5046197;28;20722;-81
2022/12/22 03:53:28;;;;;;;10.17;8.97;;;;;;;9.51;100.00;98108.28;5049560;28;20624;-81
2022/12/22 03:55:56;;;;;;;9.13;8.23;;;;;;;9.45;100.00;98101.66;5041289;28;20274;-80
2022/12/22 03:58:29;;;;;;;9.17;8.13;;;;;;;9.47;100.00;98094.47;5045163;28;20262;-81
2022/12/22 04:01:06;;;;;;;9.77;8.03;;;;;;;9.38;100.00;98093.38;5046646;28;20193;-80
2022/12/22 04:03:36;;;;;;;9.20;8.20;;;;;;;9.35;100.00;98088.31;5047193;28;20204;-80
2022/12/22 04:06:05;;;;;;;11.50;9.37;;;;;;;9.36;100.00;98084.72;5041596;28;20196;-81
2022/12/22 04:08:34;;;;;;;10.30;9.13;;;;;;;9.40;100.00;98086.16;5049499;28;20197;-80
2022/12/22 04:13:48;;;;;;;8.67;7.57;;;;;;;9.36;100.00;98079.44;5050819;28;20220;-80
2022/12/22 04:16:16;;;;;;;12.07;8.47;;;;;;;9.45;100.00;98070.78;5048270;28;20196;-80
2022/12/22 04:18:48;;;;;;;8.83;7.93;;;;;;;9.30;100.00;98071.13;5052084;28;20727;-80
2022/12/22 04:21:17;;;;;;;9.87;8.80;;;;;;;9.26;100.00;98064.38;5043461;28;20200;-80
2022/12/22 04:23:45;;;;;;;10.73;9.40;;;;;;;9.29;100.00;98066.81;5044229;28;20197;-80
2022/12/22 04:26:14;;;;;;;11.10;9.37;;;;;;;9.36;100.00;98062.72;5052136;28;20223;-81
2022/12/22 04:28:44;;;;;;;10.27;9.13;;;;;;;9.31;100.00;98064.88;5040654;28;20204;-81
2022/12/22 04:31:12;;;;;;;11.63;10.20;;;;;;;9.31;100.00;98060.44;5047035;28;20328;-81
2022/12/22 04:33:41;;;;;;;11.43;10.23;;;;;;;9.36;100.00;98058.31;5042528;28;20212;-81
2022/12/22 04:36:11;;;;;;;11.77;10.10;;;;;;;9.34;100.00;98057.56;5044236;28;20197;-80
2022/12/22 04:38:40;;;;;;;11.13;8.67;;;;;;;9.39;100.00;98052.78;5047583;28;20197;-81
2022/12/22 04:41:08;;;;;;;9.13;8.00;;;;;;;9.45;100.00;98046.16;5044619;28;20197;-81
2022/12/22 04:43:37;;;;;;;9.13;8.23;;;;;;;9.47;100.00;98049.56;5043869;28;20197;-81
2022/12/22 04:46:06;;;;;;;11.20;8.70;;;;;;;9.52;100.00;98047.38;5047725;28;20246;-81
2022/12/22 04:48:36;;;;;;;9.67;8.67;;;;;;;9.44;100.00;98039.19;5055722;28;20259;-81
2022/12/22 04:51:05;;;;;;;10.70;8.57;;;;;;;9.50;100.00;98036.09;5051671;28;20217;-81
2022/12/22 04:53:36;;;;;;;9.63;8.40;;;;;;;9.55;100.00;98047.13;5052699;28;20702;-81
2022/12/22 04:56:08;;;;;;;10.20;9.13;;;;;;;9.53;100.00;98048.22;5026940;28;20201;-81
2022/12/22 04:58:37;;;;;;;10.57;9.37;;;;;;;9.58;100.00;98036.34;5023786;28;20212;-81
2022/12/22 05:01:10;;;;;;;10.10;9.10;;;;;;;9.64;100.00;98038.47;5012283;28;20202;-81
2022/12/22 05:03:38;;;;;;;12.53;10.43;;;;;;;9.67;100.00;98022.41;5024247;28;20728;-80
2022/12/22 05:06:07;;;;;;;12.40;9.97;;;;;;;9.66;100.00;98035.75;5030982;28;20190;-81
2022/12/22 05:08:38;;;;;;;11.10;9.50;;;;;;;9.69;100.00;98035.50;5013581;28;20197;-81
2022/12/22 05:11:07;;;;;;;10.90;9.37;;;;;;;9.71;100.00;98025.63;5027729;28;20221;-80
2022/12/22 05:13:37;;;;;;;11.47;9.70;;;;;;;9.69;100.00;98030.22;5031518;28;20200;-81
2022/12/22 05:16:08;;;;;;;11.10;9.90;;;;;;;9.71;100.00;98023.00;5045083;28;20193;-81
2022/12/22 05:18:37;;;;;;;11.60;10.27;;;;;;;9.72;100.00;98022.88;5032155;28;20213;-80
2022/12/22 05:21:08;;;;;;;10.77;9.67;;;;;;;9.69;100.00;98015.19;5052138;28;20205;-81
2022/12/22 05:23:38;;;;;;;11.37;10.17;;;;;;;9.70;100.00;98016.88;5051755;28;20188;-81
2022/12/22 05:26:08;;;;;;;13.23;11.03;;;;;;;9.74;100.00;98007.72;5042765;28;20221;-80
2022/12/22 05:28:39;;;;;;;12.63;10.57;;;;;;;9.75;100.00;97998.00;4987126;28;20197;-81
2022/12/22 05:31:09;;;;;;;11.33;10.07;;;;;;;9.75;100.00;97996.22;4973956;28;20198;-80
2022/12/22 05:33:38;;;;;;;11.53;10.33;;;;;;;9.77;100.00;97996.06;4977679;28;20210;-80
2022/12/22 05:36:08;;;;;;;14.40;11.97;;;;;;;9.78;100.00;98000.41;4945218;28;20207;-80
2022/12/22 05:38:40;;;;;;;12.00;10.73;;;;;;;9.82;100.00;97993.88;4974550;28;20238;-80
2022/12/22 05:41:09;;;;;;;14.40;11.53;;;;;;;9.79;100.00;97986.22;4971600;28;20200;-80
2022/12/22 05:43:38;;;;;;;14.63;11.33;;;;;;;9.77;100.00;97984.66;4928867;29;20272;-80
2022/12/22 05:46:09;;;;;;;15.97;11.77;;;;;;;9.87;100.00;97983.81;4929528;29;20209;-80
2022/12/22 05:48:39;;;;;;;14.13;11.73;;;;;;;9.85;100.00;97985.75;4931655;29;20197;-80
2022/12/22 05:51:08;;;;;;;15.70;11.93;;;;;;;9.83;100.00;97986.78;4931652;29;20232;-84
2022/12/22 05:53:46;;;;;;;13.27;11.83;;;;;;;9.84;100.00;97983.19;4928530;29;20198;-80
2022/12/22 05:56:14;;;;;;;15.37;10.97;;;;;;;9.83;100.00;97984.16;4876220;29;20654;-80
2022/12/22 05:58:44;;;;;;;12.43;11.07;;;;;;;9.74;100.00;97985.72;4880721;29;20251;-80
2022/12/22 06:01:12;;;;;;;14.43;11.57;;;;;;;9.79;100.00;97980.91;4930560;29;20197;-81
2022/12/22 06:03:41;;;;;;;13.23;11.63;;;;;;;9.87;100.00;97970.56;4934128;29;20283;-80
2022/12/22 06:06:10;;;;;;;11.73;10.53;;;;;;;9.80;100.00;97964.09;4932451;29;20201;-81
2022/12/22 06:08:39;;;;;;;13.43;10.47;;;;;;;9.90;100.00;97985.34;4939815;29;20197;-81
2022/12/22 06:11:08;;;;;;;13.70;10.80;;;;;;;9.92;100.00;97989.53;4951523;29;20220;-80
2022/12/22 06:13:37;;;;;;;11.57;10.37;;;;;;;9.92;100.00;97991.34;4948279;28;20290;-81
2022/12/22 06:16:07;;;;;;;11.60;10.37;;;;;;;9.95;100.00;97984.03;4989246;28;20203;-81
2022/12/22 06:18:36;;;;;;;13.50;9.70;;;;;;;9.86;100.00;97970.72;4987773;28;20203;-80
2022/12/22 06:21:05;;;;;;;10.57;9.40;;;;;;;9.96;100.00;97964.56;4984825;28;20199;-80
2022/12/22 06:23:34;;;;;;;10.03;9.03;;;;;;;9.89;100.00;97963.34;4988993;28;20246;-80
2022/12/22 06:26:08;;;;;;;9.57;8.40;;;;;;;9.90;100.00;97959.75;4989910;28;20192;-80
2022/12/22 06:28:37;;;;;;;10.30;9.23;;;;;;;9.82;100.00;97951.59;4989227;28;20257;-80
2022/12/22 06:31:07;;;;;;;10.07;8.87;;;;;;;9.92;100.00;97952.53;4986002;28;20195;-80
2022/12/22 06:33:36;;;;;;;10.33;8.53;;;;;;;9.87;100.00;97951.22;5022868;28;20221;-80
2022/12/22 06:36:05;;;;;;;9.23;7.57;;;;;;;9.90;100.00;97943.88;5013633;28;20186;-80
2022/12/22 06:38:34;;;;;;;8.57;6.87;;;;;;;9.87;100.00;97948.59;5050532;28;20378;-80
2022/12/22 06:41:10;;;;;;;13.83;6.90;;;;;;;9.92;100.00;97944.59;5050757;28;20197;-79
2022/12/22 06:43:38;;;;;;;7.10;6.40;;;;;;;9.86;100.00;97939.81;5047404;28;20197;-80
2022/12/22 06:46:06;;;;;;;7.20;6.50;;;;;;;9.96;100.00;97938.09;5047093;28;20259;-80
2022/12/22 06:48:35;;;;;;;5.63;5.07;;;;;;;9.93;100.00;97948.06;5047121;28;20266;-80
2022/12/22 06:51:05;;;;;;;5.30;4.77;;;;;;;9.92;100.00;97939.28;5046962;28;20304;-81
2022/12/22 06:53:33;;;;;;;7.17;5.33;;;;;;;9.87;100.00;97933.56;5033399;28;20223;-80
2022/12/22 06:56:02;;;;;;;6.70;5.70;;;;;;;9.91;100.00;97939.44;5047849;28;20209;-80
2022/12/22 06:58:33;;;;;;;5.77;5.27;;;;;;;9.96;100.00;97948.69;5041352;28;20490;-80
2022/12/22 07:01:01;;;;;;;6.10;5.43;;;;;;;9.98;100.00;97945.91;5046953;28;20193;-80
2022/12/22 07:03:32;;;;;;;6.93;5.53;;;;;;;9.95;100.00;97941.72;5047124;28;20568;-80
2022/12/22 07:06:03;;;;;;;5.90;5.30;;;;;;;9.98;100.00;97946.75;5050018;28;20215;-80
2022/12/22 07:08:31;;;;;;;7.80;5.13;;;;;;;9.96;100.00;97943.41;5043821;28;20205;-80
2022/12/22 07:11:02;;;;;;;5.37;4.87;;;;;;;10.03;100.00;97941.06;5010856;28;20200;-80
2022/12/22 07:13:35;;;;;;;5.17;4.67;;;;;;;9.96;100.00;97942.56;5045887;28;20225;-81
2022/12/22 07:16:07;;;;;;;5.97;5.00;;;;;;;10.04;100.00;97943.63;5005822;28;20198;-81
2022/12/22 07:18:41;;;;;;;5.37;4.50;;;;;;;10.03;100.00;97943.72;5001398;28;20326;-81
2022/12/22 07:21:14;;;;;;;4.60;4.10;;;;;;;9.98;100.00;97941.47;5006360;28;20201;-80
2022/12/22 07:23:44;;;;;;;5.33;3.80;;;;;;;9.99;100.00;97942.28;5002218;28;20232;-80
2022/12/22 07:26:13;;;;;;;4.40;4.00;;;;;;;9.99;100.00;97937.84;4967576;28;20239;-80
2022/12/22 07:28:44;;;;;;;4.63;3.90;;;;;;;10.01;100.00;97933.25;4964808;28;20204;-81
2022/12/22 07:31:16;;;;;;;4.80;3.70;;;;;;;10.06;100.00;97943.47;4963917;28;20203;-81
2022/12/22 07:33:46;;;;;;;4.00;3.50;;;;;;;10.06;100.00;97934.72;4981912;28;20214;-81
2022/12/22 07:36:17;;;;;;;4.80;3.63;;;;;;;10.12;100.00;97931.53;4967566;28;20207;-81
2022/12/22 07:38:50;;;;;;;4.30;3.53;;;;;;;10.03;100.00;97931.31;4964340;28;20200;-81
2022/12/22 07:44:07;;;;;;;4.57;4.17;;;;;;;10.07;100.00;97942.53;4984522;28;20225;-80
2022/12/22 07:46:41;;;;;;;5.10;3.60;;;;;;;10.06;100.00;97942.66;5002517;28;20282;-81
2022/12/22 07:51:58;;;;;;;6.03;3.83;;;;;;;10.10;100.00;97944.06;5011009;28;20190;-81
2022/12/22 07:54:27;;;;;;;6.33;3.17;;;;;;;10.09;100.00;97930.00;5025973;28;20221;-81
2022/12/22 07:56:57;;;;;;;3.50;3.20;;;;;;;10.11;100.00;97928.06;5048572;28;20361;-81
2022/12/22 07:59:27;;;;;;;5.70;3.77;;;;;;;10.18;100.00;97917.81;5045077;28;20190;-81
2022/12/22 08:01:55;;;;;;;4.57;2.77;;;;;;;10.18;100.00;97920.47;5044943;28;20205;-81
2022/12/22 08:04:29;;;;;;;4.37;2.90;;;;;;;10.18;100.00;97918.66;5025287;28;20206;-81
2022/12/22 08:07:00;;;;;;;3.73;2.90;;;;;;;10.18;100.00;97918.66;5026960;28;20201;-81
2022/12/22 08:09:29;;;;;;;3.40;2.90;;;;;;;10.20;100.00;97916.72;4986234;28;20248;-81
2022/12/22 08:11:58;;;;;;;3.97;2.50;;;;;;;10.22;100.00;97913.97;4984568;28;20276;-81
2022/12/22 08:14:29;;;;;;;3.07;2.80;;;;;;;10.25;100.00;97916.41;4982015;28;20230;-81
2022/12/22 08:16:58;;;;;;;3.30;2.43;;;;;;;10.24;100.00;97918.19;4983114;28;20290;-81
2022/12/22 08:19:28;;;;;;;3.57;2.10;;;;;;;10.28;100.00;97916.13;4929681;29;20197;-81
2022/12/22 08:21:57;;;;;;;3.03;2.33;;;;;;;10.29;100.00;97923.94;4930958;29;20204;-81
2022/12/22 08:24:26;;;;;;;3.77;2.30;;;;;;;10.35;100.00;97916.47;4897533;29;20203;-81
2022/12/22 08:26:58;;;;;;;5.37;2.27;;;;;;;10.36;100.00;97920.78;4890869;29;20375;-81
2022/12/22 08:29:33;;;;;;;2.53;1.80;;;;;;;10.44;100.00;97927.13;4932288;29;20200;-81
2022/12/22 08:32:05;;;;;;;4.13;1.70;;;;;;;10.51;100.00;97924.78;4897281;29;20202;-81
2022/12/22 08:34:35;;;;;;;3.50;1.87;;;;;;;10.42;100.00;97926.44;4896502;29;20226;-81
2022/12/22 08:37:07;;;;;;;5.87;1.90;;;;;;;10.47;100.00;97921.56;4910880;29;20199;-80
2022/12/22 08:39:41;;;;;;;3.37;1.60;;;;;;;10.56;100.00;97931.41;4949581;29;20244;-80
2022/12/22 08:42:13;;;;;;;3.20;2.00;;;;;;;10.54;100.00;97935.16;4956910;28;20291;-80
2022/12/22 08:44:44;;;;;;;1.83;1.60;;;;;;;10.53;100.00;97942.25;4970486;28;20204;-80
2022/12/22 08:47:13;;;;;;;3.20;1.60;;;;;;;10.61;100.00;97941.59;4971163;28;20212;-80
2022/12/22 08:49:45;;;;;;;7.10;1.97;;;;;;;10.58;100.00;97947.97;4992890;28;20221;-80
2022/12/22 08:52:14;;;;;;;3.20;1.70;;;;;;;10.55;100.00;97944.78;5010140;28;20199;-81
2022/12/22 08:54:47;;;;;;;7.40;2.57;;;;;;;10.43;100.00;97951.09;5013728;28;20226;-80
2022/12/22 08:57:16;;;;;;;6.93;3.00;;;;;;;10.41;100.00;97956.47;4962961;28;20199;-80
2022/12/22 08:59:48;;;;;;;5.73;2.63;;;;;;;10.24;100.00;97963.19;5008070;28;20242;-80
2022/12/22 09:02:16;;;;;;;5.10;3.17;;;;;;;10.26;100.00;97947.19;5004610;28;20186;-80
2022/12/22 09:04:45;;;;;;;6.77;3.17;;;;;;;10.36;100.00;97952.56;5006674;28;20209;-80
2022/12/22 09:07:15;;;;;;;9.13;3.90;;;;;;;10.17;100.00;97961.13;5005799;28;20216;-80
2022/12/22 09:09:45;;;;;;;7.13;3.70;;;;;;;10.16;100.00;97965.56;5010445;28;20704;-80
2022/12/22 09:12:18;;;;;;;7.57;3.80;;;;;;;10.21;100.00;97979.25;5008023;28;20217;-80
2022/12/22 09:14:48;;;;;;;6.67;3.00;;;;;;;10.25;100.00;97995.78;5004144;28;20255;-81
2022/12/22 09:17:19;;;;;;;4.73;2.93;;;;;;;10.27;100.00;97999.13;5009906;28;20226;-81
2022/12/22 09:19:47;;;;;;;5.70;3.20;;;;;;;10.27;100.00;97991.19;5009385;28;20233;-80
2022/12/22 09:22:16;;;;;;;6.47;3.13;;;;;;;10.26;100.00;97992.16;5002483;28;20202;-82
2022/12/22 09:24:52;;;;;;;4.47;3.30;;;;;;;10.24;100.00;97999.38;5051549;28;20261;-80
2022/12/22 09:27:24;;;;;;;7.33;2.93;;;;;;;10.38;100.00;98014.13;5043160;28;20356;-81
2022/12/22 09:29:58;;;;;;;3.40;2.33;;;;;;;10.33;100.00;98011.88;5048159;28;20212;-81
2022/12/22 09:32:28;;;;;;;4.30;2.60;;;;;;;10.51;100.00;98015.63;5047632;28;20189;-80
2022/12/22 09:35:02;;;;;;;5.50;2.93;;;;;;;10.29;100.00;98013.06;5046371;28;20223;-81
2022/12/22 09:37:34;;;;;;;6.47;3.77;;;;;;;10.34;100.00;98021.50;5049305;28;20190;-81
2022/12/22 09:40:09;;;;;;;7.20;3.17;;;;;;;10.22;100.00;98023.31;5048006;28;20189;-81
2022/12/22 09:42:43;;;;;;;2.40;1.50;;;;;;;10.38;100.00;98022.06;5047494;28;20252;-81
2022/12/22 09:45:18;;;;;;;2.17;0.83;;;;;;;10.51;100.00;98036.81;5041861;28;20266;-81
2022/12/22 09:47:52;;;;;;;2.53;0.60;;;;;;;10.67;100.00;98033.75;5050825;28;20192;-81
2022/12/22 09:50:24;;;;;;;1.47;0.60;;;;;;;10.66;100.00;98037.38;5026724;28;20209;-81
2022/12/22 09:52:58;;;;;;;0.77;0.40;;;;;;;10.72;100.00;98028.09;5029372;28;20190;-81
2022/12/22 09:55:40;;;;;;;0.80;0.40;;;;;;;10.77;100.00;98015.31;4985417;28;20317;-81
2022/12/22 09:58:19;;;;;;;0.90;0.40;;;;;;;10.78;100.00;98009.03;4979736;28;20283;-79
2022/12/22 10:01:03;;;;;;;1.23;0.60;;;;;;;10.80;100.00;98007.94;4989820;28;20203;-81
2022/12/22 10:03:41;;;;;;;0.53;0.37;;;;;;;10.89;100.00;98001.88;4991803;28;20187;-81
2022/12/22 10:06:15;;;;;;;5.80;3.57;;;;;;;10.83;100.00;98009.50;4985404;28;20203;-81
2022/12/22 10:08:49;;;;;;;94.47;44.87;;;;;;;10.62;100.00;98011.28;4997491;28;20462;-81
2022/12/22 10:11:20;;;;;;;0.57;0.50;;;;;;;10.76;100.00;98009.16;5006777;28;20278;-81
2022/12/22 10:13:50;;;;;;;5.53;2.97;;;;;;;10.78;100.00;98011.69;5025057;28;20247;-81
2022/12/22 10:16:23;;;;;;;39.80;26.93;;;;;;;10.77;100.00;98017.94;5052196;28;20193;-81
2022/12/22 10:18:59;;;;;;;37.07;23.00;;;;;;;10.64;100.00;98012.84;4991818;28;20283;-80
2022/12/22 10:21:33;;;;;;;95.87;56.90;;;;;;;10.65;100.00;98011.88;4985187;28;20261;-81
2022/12/22 10:24:22;;;;;;;31.50;18.83;;;;;;;10.65;100.00;98022.47;4955469;28;20280;-81
2022/12/22 10:26:58;;;;;;;2.80;2.00;;;;;;;10.71;100.00;98024.63;4987476;28;20227;-80
2022/12/22 10:29:29;;;;;;;34.33;29.10;;;;;;;10.61;100.00;98026.31;4985624;28;20318;-80
2022/12/22 10:32:02;;;;;;;1.60;0.90;;;;;;;10.74;100.00;98037.59;4985324;28;20196;-80
2022/12/22 10:34:32;;;;;;;1.00;0.70;;;;;;;10.76;100.00;98046.25;4989454;28;20871;-80
2022/12/22 10:37:06;;;;;;;3.50;1.97;;;;;;;10.81;100.00;98051.19;5022074;28;20189;-80
2022/12/22 10:39:37;;;;;;;0.83;0.70;;;;;;;10.86;100.00;98056.91;5048138;28;20193;-80
2022/12/22 10:42:12;;;;;;;1.30;0.80;;;;;;;10.75;100.00;98059.63;5047132;28;20189;-79
2022/12/22 10:44:46;;;;;;;0.50;0.50;;;;;;;10.87;100.00;98053.31;5048077;28;20197;-80
2022/12/22 10:47:22;;;;;;;2.57;0.60;;;;;;;10.87;100.00;98067.38;5042851;28;20203;-80
2022/12/22 10:49:57;;;;;;;0.90;0.50;;;;;;;10.77;100.00;98060.31;5047628;28;20231;-80
2022/12/22 10:52:28;;;;;;;0.30;0.30;;;;;;;10.90;100.00;98071.56;5048318;28;20200;-80
2022/12/22 10:55:17;;;;;;;0.80;0.60;;;;;;;10.92;100.00;98074.13;5046323;28;20337;-80
2022/12/22 10:57:46;;;;;;;1.73;1.20;;;;;;;10.73;100.00;98069.50;5045236;28;20224;-80
2022/12/22 11:00:25;;;;;;;1.73;0.90;;;;;;;10.67;100.00;98076.13;5046152;28;20204;-81
2022/12/22 11:02:59;;;;;;;2.00;0.70;;;;;;;10.78;100.00;98072.59;4989708;28;20227;-80
2022/12/22 11:05:29;;;;;;;1.63;0.80;;;;;;;10.79;100.00;98069.81;4991314;28;20355;-80
2022/12/22 11:08:11;;;;;;;3.60;3.20;;;;;;;10.76;100.00;98075.38;4981930;28;20192;-81
2022/12/22 11:10:48;;;;;;;1.37;0.90;;;;;;;10.77;100.00;98074.41;4983961;28;20250;-80
2022/12/22 11:13:47;;;;;;;0.70;0.40;;;;;;;10.85;100.00;98073.78;4987356;28;20203;-80
2022/12/22 11:16:25;;;;;;;4.13;3.40;;;;;;;10.78;100.00;98080.53;4988143;28;20231;-80
2022/12/22 11:19:10;;;;;;;1.80;0.93;;;;;;;10.87;100.00;98083.28;4981865;28;20265;-80
2022/12/22 11:21:49;;;;;;;3.20;2.90;;;;;;;10.88;100.00;98081.47;5024492;28;20196;-80
2022/12/22 11:24:34;;;;;;;0.87;0.77;;;;;;;10.96;100.00;98094.09;5023239;28;20197;-81
2022/12/22 11:27:16;;;;;;;2.40;0.80;;;;;;;10.99;100.00;98097.31;5021883;28;20222;-80
2022/12/22 11:30:02;;;;;;;4.20;2.83;;;;;;;10.99;100.00;98099.97;5007277;28;20197;-81
2022/12/22 11:32:44;;;;;;;4.60;4.30;;;;;;;10.78;100.00;98110.53;5003083;28;20194;-81
2022/12/22 11:35:25;;;;;;;8.70;7.77;;;;;;;10.89;100.00;98110.47;5010682;28;20222;-80
2022/12/22 11:38:01;;;;;;;2.67;1.00;;;;;;;10.99;100.00;98117.66;5003239;28;20213;-81
2022/12/22 11:40:35;;;;;;;1.63;1.10;;;;;;;11.03;100.00;98125.25;5007126;28;20197;-81
2022/12/22 11:43:19;;;;;;;1.30;0.90;;;;;;;11.15;100.00;98126.88;4974313;28;20194;-81
2022/12/22 11:46:00;;;;;;;0.97;0.87;;;;;;;11.24;100.00;98129.75;4895214;29;20202;-81
2022/12/22 11:48:52;;;;;;;1.80;1.70;;;;;;;11.04;100.00;98123.44;4892530;29;20241;-82
2022/12/22 11:51:35;;;;;;;1.80;1.13;;;;;;;11.31;100.00;98137.06;4894144;29;20218;-82
2022/12/22 11:54:35;;;;;;;1.87;1.13;;;;;;;11.24;100.00;98143.00;4891152;29;20206;-82
2022/12/22 11:57:15;;;;;;;1.30;1.10;;;;;;;11.39;100.00;98147.03;4855458;29;20199;-81
2022/12/22 11:59:58;;;;;;;1.33;0.97;;;;;;;11.25;100.00;98149.97;4850234;29;20207;-81
2022/12/22 12:03:14;;;;;;;2.67;1.20;;;;;;;11.13;100.00;98155.31;4851406;29;20387;-81
2022/12/22 12:05:57;;;;;;;2.83;1.30;;;;;;;11.17;100.00;98162.03;4970537;28;20204;-81
2022/12/22 12:08:39;;;;;;;2.70;1.40;;;;;;;11.31;100.00;98160.91;4985923;28;20195;-81
2022/12/22 12:11:17;;;;;;;2.40;1.43;;;;;;;11.44;100.00;98166.88;4985252;28;20262;-80
2022/12/22 12:13:57;;;;;;;1.77;1.20;;;;;;;11.46;100.00;98172.88;4985171;28;20191;-81
2022/12/22 12:16:34;;;;;;;1.40;1.30;;;;;;;11.51;100.00;98174.31;5027606;28;20225;-81
2022/12/22 12:19:38;;;;;;;1.93;1.40;;;;;;;11.39;100.00;98182.34;5030461;28;20300;-81
2022/12/22 12:22:14;;;;;;;1.40;1.30;;;;;;;11.49;100.00;98187.72;5023082;28;20237;-81
2022/12/22 12:24:59;;;;;;;1.23;1.13;;;;;;;11.53;100.00;98175.03;5031532;28;20201;-81
2022/12/22 12:27:57;;;;;;;1.90;1.70;;;;;;;11.45;100.00;98171.19;4986629;28;20325;-81
2022/12/22 12:30:36;;;;;;;1.70;1.40;;;;;;;11.31;100.00;98183.94;4990319;28;20327;-81
2022/12/22 12:33:14;;;;;;;1.60;1.50;;;;;;;11.29;100.00;98191.16;4986681;28;20274;-81
2022/12/22 12:35:53;;;;;;;2.37;1.40;;;;;;;11.34;100.00;98199.59;4985387;28;20219;-81
2022/12/22 12:38:29;;;;;;;2.33;1.60;;;;;;;11.32;100.00;98214.78;4985166;28;20407;-81
2022/12/22 12:41:27;;;;;;;1.30;1.20;;;;;;;11.35;100.00;98211.88;4990309;28;20265;-81
2022/12/22 12:43:59;;;;;;;1.40;1.20;;;;;;;11.26;100.00;98213.47;4987537;28;20191;-81
2022/12/22 12:46:58;;;;;;;3.37;1.60;;;;;;;11.09;100.00;98217.47;5016288;28;20190;-80
2022/12/22 12:49:57;;;;;;;1.80;1.30;;;;;;;11.25;100.00;98227.69;5031341;28;20194;-81
2022/12/22 12:53:05;;;;;;;1.70;1.60;;;;;;;11.18;100.00;98223.84;5031007;28;20202;-81
2022/12/22 12:55:36;;;;;;;1.73;1.63;;;;;;;11.19;100.00;98230.81;5028539;28;20218;-80
2022/12/22 12:58:10;;;;;;;1.63;1.53;;;;;;;11.28;100.00;98219.47;5029211;28;20210;-81
2022/12/22 13:00:47;;;;;;;2.13;1.90;;;;;;;11.07;100.00;98226.53;5029786;28;20251;-81
2022/12/22 13:03:42;;;;;;;1.67;1.57;;;;;;;11.26;100.00;98234.66;5027812;28;20205;-81
2022/12/22 13:06:52;;;;;;;2.67;1.97;;;;;;;11.29;100.00;98225.63;5034308;28;20204;-81
2022/12/22 13:09:21;;;;;;;2.33;1.70;;;;;;;11.34;100.00;98245.50;5034622;28;20221;-81
2022/12/22 13:12:39;;;;;;;2.23;2.03;;;;;;;11.44;100.00;98233.16;5035728;28;20198;-78
2022/12/22 13:15:31;;;;;;;2.30;2.00;;;;;;;11.25;100.00;98240.94;5028755;28;20284;-80
2022/12/22 13:18:01;;;;;;;2.80;2.17;;;;;;;11.43;100.00;98251.84;5028485;28;20198;-81
2022/12/22 13:20:33;;;;;;;2.87;2.53;;;;;;;11.33;100.00;98243.81;5032619;28;20202;-81
2022/12/22 13:23:10;;;;;;;4.23;2.40;;;;;;;11.37;100.00;98247.03;5034145;28;20216;-80
2022/12/22 13:25:45;;;;;;;4.47;2.80;;;;;;;11.24;100.00;98251.66;5033433;28;20193;-81
2022/12/22 13:28:21;;;;;;;2.93;2.50;;;;;;;11.23;100.00;98268.53;5032301;28;20224;-81
2022/12/22 13:30:58;;;;;;;3.07;2.77;;;;;;;11.08;100.00;98267.94;5027397;28;20209;-82
2022/12/22 13:33:32;;;;;;;3.53;2.70;;;;;;;11.13;100.00;98268.44;5034598;28;20194;-81
2022/12/22 13:36:01;;;;;;;3.97;2.70;;;;;;;11.14;100.00;98276.25;5031917;28;20217;-81
2022/12/22 13:38:31;;;;;;;3.97;2.80;;;;;;;11.16;100.00;98279.63;5027895;28;20254;-81
2022/12/22 13:41:04;;;;;;;3.77;3.47;;;;;;;11.40;100.00;98289.22;5033994;28;20273;-81
2022/12/22 13:43:33;;;;;;;4.40;3.20;;;;;;;11.25;100.00;98282.50;5032674;28;20625;-81
2022/12/22 13:46:09;;;;;;;4.00;3.30;;;;;;;11.17;100.00;98276.00;5033521;28;20189;-81
2022/12/22 13:48:41;;;;;;;3.63;3.10;;;;;;;11.32;100.00;98273.09;5028983;28;20214;-80
2022/12/22 13:51:19;;;;;;;3.97;3.20;;;;;;;11.33;100.00;98274.78;5027782;28;20267;-80
2022/12/22 13:53:54;;;;;;;3.47;3.17;;;;;;;11.30;100.00;98280.34;5033129;28;20247;-81
2022/12/22 13:56:39;;;;;;;3.80;3.40;;;;;;;11.18;100.00;98274.19;5033947;28;20225;-81
2022/12/22 13:59:21;;;;;;;3.67;3.10;;;;;;;11.36;100.00;98279.81;4943331;28;20206;-80
2022/12/22 14:01:58;;;;;;;4.30;3.30;;;;;;;11.44;100.00;98294.16;4989802;28;20234;-79
2022/12/22 14:04:30;;;;;;;3.40;3.10;;;;;;;11.53;100.00;98291.72;4990059;28;20286;-79
2022/12/22 14:07:11;;;;;;;4.97;3.40;;;;;;;11.30;100.00;98281.19;4934149;29;20664;-79
2022/12/22 14:09:44;;;;;;;3.57;3.10;;;;;;;11.49;100.00;98275.22;4929827;29;20216;-79
2022/12/22 14:12:15;;;;;;;3.83;3.40;;;;;;;11.48;100.00;98273.50;4931740;29;20673;-79
2022/12/22 14:14:46;;;;;;;4.80;3.40;;;;;;;11.57;100.00;98285.19;4922251;29;20229;-79
2022/12/22 14:17:22;;;;;;;4.47;4.07;;;;;;;11.34;100.00;98287.06;4958329;28;20234;-79
2022/12/22 14:19:52;;;;;;;3.70;3.30;;;;;;;11.20;100.00;98292.66;4989465;28;20198;-79
2022/12/22 14:22:24;;;;;;;4.33;3.87;;;;;;;11.29;100.00;98300.72;4986218;28;20306;-79
2022/12/22 14:25:00;;;;;;;4.40;4.00;;;;;;;11.23;100.00;98290.59;5001347;28;20202;-79
2022/12/22 14:27:36;;;;;;;5.67;3.87;;;;;;;11.40;100.00;98289.22;5011204;28;20226;-81
2022/12/22 14:30:15;;;;;;;4.50;3.80;;;;;;;11.37;100.00;98278.84;5000567;28;20273;-79
2022/12/22 14:32:53;;;;;;;4.93;3.67;;;;;;;11.21;100.00;98283.72;5007660;28;20237;-79
2022/12/22 14:35:30;;;;;;;4.80;4.10;;;;;;;11.12;100.00;98283.50;5005766;28;20700;-79
2022/12/22 14:38:26;;;;;;;4.93;3.60;;;;;;;11.10;100.00;98279.31;5005880;28;20226;-79
2022/12/22 14:40:57;;;;;;;5.60;4.27;;;;;;;11.01;100.00;98278.22;5008772;28;20241;-80
2022/12/22 14:43:33;;;;;;;6.37;3.80;;;;;;;10.98;100.00;98285.56;5004973;28;20194;-80
2022/12/22 14:46:24;;;;;;;4.50;3.57;;;;;;;10.98;100.00;98288.22;4991302;28;20217;-80
2022/12/22 14:48:58;;;;;;;5.53;4.20;;;;;;;10.92;100.00;98291.38;4952747;29;20317;-80
2022/12/22 14:51:29;;;;;;;4.67;4.17;;;;;;;10.85;100.00;98293.66;4939238;28;20265;-81
2022/12/22 14:54:02;;;;;;;4.73;3.90;;;;;;;10.67;100.00;98295.94;4964412;28;20207;-80
2022/12/22 14:56:31;;;;;;;5.50;4.10;;;;;;;10.72;100.00;98303.53;4965761;28;20230;-80
2022/12/22 14:59:12;;;;;;;5.13;3.97;;;;;;;10.57;100.00;98295.81;4985443;28;20199;-80
2022/12/22 15:01:57;;;;;;;4.27;3.60;;;;;;;10.71;100.00;98308.00;4989191;28;20249;-80
2022/12/22 15:04:34;;;;;;;5.13;3.90;;;;;;;10.64;100.00;98298.81;4988690;28;20203;-80
2022/12/22 15:07:18;;;;;;;4.47;3.90;;;;;;;10.54;100.00;98305.81;4987985;28;20205;-80
2022/12/22 15:10:08;;;;;;;5.23;3.80;;;;;;;10.48;100.00;98307.09;4991502;28;20209;-80
2022/12/22 15:12:44;;;;;;;7.67;6.10;;;;;;;10.36;100.00;98317.81;4991525;28;20194;-80
2022/12/22 15:15:16;;;;;;;10.73;8.67;;;;;;;10.28;100.00;98321.03;5022402;28;20205;-80
2022/12/22 15:17:47;;;;;;;10.73;8.93;;;;;;;10.23;100.00;98331.97;5038882;28;20221;-80
2022/12/22 15:20:21;;;;;;;214.87;129.70;;;;;;;10.10;100.00;98330.31;5047038;28;20193;-80
2022/12/22 15:22:52;;;;;;;27.97;20.60;;;;;;;9.93;100.00;98339.53;5016403;28;20196;-80
2022/12/22 15:25:23;;;;;;;30.17;26.47;;;;;;;9.89;100.00;98341.56;5051100;28;20193;-80
2022/12/22 15:27:52;;;;;;;7.77;6.97;;;;;;;9.88;100.00;98350.47;5064879;28;20235;-80
2022/12/22 15:30:22;;;;;;;6.67;4.80;;;;;;;9.92;100.00;98351.91;5068687;28;20272;-80
2022/12/22 15:32:57;;;;;;;5.37;4.50;;;;;;;9.99;100.00;98354.94;5064193;28;20200;-80
2022/12/22 15:35:30;;;;;;;34.30;23.27;;;;;;;9.93;100.00;98364.16;5060918;28;20258;-80
2022/12/22 15:38:02;;;;;;;16.53;12.57;;;;;;;9.96;100.00;98361.31;5066757;28;20475;-79